Time;durP1;ratioP1;P1;durP2;ratioP2;P2;SDS_P1;SDS_P2;PMS_P1;PMS_P2;Temp;Humidity;BMP_temperature;BMP_pressure;BME280_temperature;BME280_humidity;BME280_pressure;Samples;Min_cycle;Max_cycle;Signal;HPM_P1;HPM_P2
2023/03/19 00:01:47;;;;;;;14.77;12.03;;;12.00;99.90;;;;;;5054160;28;20459;-62
2023/03/19 00:04:16;;;;;;;12.40;10.53;;;12.00;99.90;;;;;;5053983;28;20814;-62
2023/03/19 00:06:42;;;;;;;11.90;9.50;;;11.90;99.90;;;;;;5053814;28;20461;-62
2023/03/19 00:09:11;;;;;;;15.70;11.77;;;11.90;99.90;;;;;;5053881;28;20465;-62
2023/03/19 00:11:38;;;;;;;14.47;10.53;;;11.80;99.90;;;;;;5054019;28;20797;-62
2023/03/19 00:14:06;;;;;;;18.77;11.70;;;11.90;99.90;;;;;;5053826;28;20712;-62
2023/03/19 00:16:33;;;;;;;12.10;10.27;;;11.70;99.90;;;;;;5054415;28;20827;-60
2023/03/19 00:19:01;;;;;;;12.30;10.23;;;11.60;99.90;;;;;;5054273;28;20459;-61
2023/03/19 00:21:28;;;;;;;14.40;10.40;;;11.60;99.90;;;;;;5054039;28;20521;-62
2023/03/19 00:23:59;;;;;;;12.20;10.30;;;11.70;99.90;;;;;;5056851;28;20565;-62
2023/03/19 00:26:28;;;;;;;16.20;10.87;;;11.70;99.90;;;;;;5057695;28;20443;-63
2023/03/19 00:28:55;;;;;;;12.67;10.93;;;11.60;99.90;;;;;;5057774;28;20459;-62
2023/03/19 00:31:22;;;;;;;15.97;10.70;;;11.50;99.90;;;;;;5058108;28;20490;-62
2023/03/19 00:33:50;;;;;;;17.10;10.63;;;11.50;99.90;;;;;;5057740;28;20451;-62
2023/03/19 00:36:17;;;;;;;14.60;11.27;;;11.50;99.90;;;;;;5057779;28;20465;-61
2023/03/19 00:38:44;;;;;;;14.67;11.00;;;11.50;99.90;;;;;;5057703;28;20768;-62
2023/03/19 00:41:11;;;;;;;11.57;10.37;;;11.50;99.90;;;;;;5057737;28;20486;-62
2023/03/19 00:43:40;;;;;;;15.37;11.77;;;11.70;99.90;;;;;;5057265;28;20483;-62
2023/03/19 00:46:07;;;;;;;13.50;11.43;;;11.60;99.90;;;;;;5057608;28;20459;-62
2023/03/19 00:48:34;;;;;;;14.33;11.80;;;11.70;99.90;;;;;;5057520;28;20465;-61
2023/03/19 00:51:03;;;;;;;14.70;12.33;;;11.60;99.90;;;;;;5057573;28;20455;-62
2023/03/19 00:53:30;;;;;;;14.20;11.53;;;11.50;99.90;;;;;;5057039;28;20458;-62
2023/03/19 00:55:57;;;;;;;15.13;12.70;;;11.30;99.90;;;;;;5057177;28;20447;-62
2023/03/19 00:58:24;;;;;;;17.53;12.57;;;11.30;99.90;;;;;;5057158;28;20545;-62
2023/03/19 01:00:54;;;;;;;17.00;12.40;;;11.30;99.90;;;;;;5057231;28;20462;-62
2023/03/19 01:03:21;;;;;;;15.67;12.50;;;11.10;99.90;;;;;;5057176;28;21005;-60
2023/03/19 01:05:49;;;;;;;15.57;12.93;;;11.10;99.90;;;;;;5057298;28;20528;-65
2023/03/19 01:08:16;;;;;;;19.20;12.83;;;11.20;99.90;;;;;;5057760;28;20560;-65
2023/03/19 01:10:43;;;;;;;13.73;12.27;;;11.10;99.90;;;;;;5057333;28;20465;-65
2023/03/19 01:13:10;;;;;;;14.90;12.90;;;11.10;99.90;;;;;;5057560;28;21002;-64
2023/03/19 01:15:38;;;;;;;17.87;13.10;;;11.00;99.90;;;;;;5056882;28;20479;-64
2023/03/19 01:18:06;;;;;;;16.80;13.07;;;10.90;99.90;;;;;;5056919;28;20546;-65
2023/03/19 01:20:33;;;;;;;15.30;12.30;;;11.00;99.90;;;;;;5056579;28;21004;-65
2023/03/19 01:23:01;;;;;;;15.03;12.87;;;10.90;99.90;;;;;;5056873;28;20465;-64
2023/03/19 01:25:28;;;;;;;16.77;13.10;;;10.80;99.90;;;;;;5056926;28;20458;-64
2023/03/19 01:27:55;;;;;;;18.70;13.70;;;10.90;99.90;;;;;;5056885;28;20451;-64
2023/03/19 01:30:22;;;;;;;16.60;12.57;;;10.90;99.90;;;;;;5056772;28;20538;-64
2023/03/19 01:32:49;;;;;;;19.13;13.43;;;10.90;99.90;;;;;;5057105;28;20513;-65
2023/03/19 01:35:18;;;;;;;18.80;14.33;;;11.00;99.90;;;;;;5056212;28;21004;-65
2023/03/19 01:37:44;;;;;;;17.70;13.53;;;11.10;99.90;;;;;;5057137;28;20451;-64
2023/03/19 01:40:13;;;;;;;17.67;13.23;;;11.10;99.90;;;;;;5056453;28;20455;-65
2023/03/19 01:42:54;;;;;;;17.63;13.60;;;11.10;99.90;;;;;;5056614;28;20454;-67
2023/03/19 01:45:31;;;;;;;15.83;13.03;;;11.00;99.90;;;;;;5056455;28;20849;-64
2023/03/19 01:47:58;;;;;;;19.93;13.30;;;11.00;99.90;;;;;;5056504;28;20482;-64
2023/03/19 01:50:43;;;;;;;14.90;13.30;;;11.00;99.90;;;;;;5055997;28;20919;-64
2023/03/19 01:53:11;;;;;;;20.43;12.30;;;10.90;99.90;;;;;;5056346;28;20440;-65
2023/03/19 01:55:38;;;;;;;17.93;14.30;;;11.00;99.90;;;;;;5056040;28;20455;-65
2023/03/19 01:58:06;;;;;;;17.80;12.70;;;11.00;99.90;;;;;;5055981;28;20474;-65
2023/03/19 02:00:35;;;;;;;17.63;13.73;;;11.10;99.90;;;;;;5055880;28;20502;-64
2023/03/19 02:03:02;;;;;;;17.10;12.70;;;10.80;99.90;;;;;;5056045;28;20465;-63
2023/03/19 02:05:31;;;;;;;18.40;13.20;;;10.90;99.90;;;;;;5056404;28;20806;-63
2023/03/19 02:08:03;;;;;;;17.70;12.93;;;11.00;99.90;;;;;;5055929;28;20541;-63
2023/03/19 02:10:30;;;;;;;17.97;13.30;;;11.00;99.90;;;;;;5055772;28;20447;-62
2023/03/19 02:12:57;;;;;;;21.20;14.37;;;11.10;99.90;;;;;;5056015;28;20829;-62
2023/03/19 02:15:24;;;;;;;16.47;13.80;;;11.00;99.90;;;;;;5055466;28;20527;-62
2023/03/19 02:17:51;;;;;;;16.53;13.30;;;10.80;99.90;;;;;;5056120;28;20562;-63
2023/03/19 02:20:25;;;;;;;17.40;12.27;;;10.60;99.90;;;;;;5056072;28;20952;-63
2023/03/19 02:23:02;;;;;;;15.37;13.17;;;10.80;99.90;;;;;;5055636;28;20443;-63
2023/03/19 02:25:38;;;;;;;16.87;12.97;;;10.90;99.90;;;;;;5055168;28;20553;-63
2023/03/19 02:28:08;;;;;;;14.97;12.97;;;11.00;99.90;;;;;;5055704;28;20530;-63
2023/03/19 02:30:36;;;;;;;20.33;12.80;;;11.00;99.90;;;;;;5055010;28;20469;-62
2023/03/19 02:33:03;;;;;;;15.13;13.43;;;10.90;99.90;;;;;;5055139;28;20546;-63
2023/03/19 02:35:33;;;;;;;16.20;12.80;;;10.80;99.90;;;;;;5055298;28;20457;-63
2023/03/19 02:38:01;;;;;;;16.40;12.93;;;10.60;99.90;;;;;;5055332;28;20550;-63
2023/03/19 02:40:32;;;;;;;20.73;14.03;;;10.60;99.90;;;;;;5055255;28;20465;-62
2023/03/19 02:42:58;;;;;;;16.50;13.93;;;10.60;99.90;;;;;;5055128;28;20539;-64
2023/03/19 02:45:30;;;;;;;17.50;13.97;;;10.60;99.90;;;;;;5055318;28;20569;-65
2023/03/19 02:47:57;;;;;;;17.80;13.30;;;10.40;99.90;;;;;;5055991;28;20439;-65
2023/03/19 02:50:24;;;;;;;20.03;13.60;;;10.50;99.90;;;;;;5054970;28;20455;-65
2023/03/19 02:52:51;;;;;;;17.00;13.10;;;10.40;99.90;;;;;;5055216;28;20465;-65
2023/03/19 02:55:18;;;;;;;18.70;13.23;;;10.30;99.90;;;;;;5055185;28;20460;-64
2023/03/19 02:57:45;;;;;;;20.57;13.03;;;10.30;99.90;;;;;;5055620;28;20832;-64
2023/03/19 03:00:13;;;;;;;17.00;12.93;;;10.30;99.90;;;;;;5055897;28;20455;-65
2023/03/19 03:02:41;;;;;;;15.60;12.17;;;10.30;99.90;;;;;;5054805;28;20459;-65
2023/03/19 03:05:09;;;;;;;15.83;12.10;;;10.60;99.90;;;;;;5054701;28;20489;-65
2023/03/19 03:07:37;;;;;;;14.10;12.53;;;10.70;99.90;;;;;;5055029;28;20455;-66
2023/03/19 03:10:04;;;;;;;16.70;12.83;;;10.80;99.90;;;;;;5055505;28;20459;-65
2023/03/19 03:12:31;;;;;;;17.67;12.80;;;10.80;99.90;;;;;;5055336;28;20458;-65
2023/03/19 03:14:58;;;;;;;16.53;13.40;;;10.70;99.90;;;;;;5055078;28;20483;-65
2023/03/19 03:17:25;;;;;;;17.63;13.30;;;10.70;99.90;;;;;;5055263;28;20455;-65
2023/03/19 03:19:54;;;;;;;14.77;12.83;;;10.60;99.90;;;;;;5056308;28;20451;-65
2023/03/19 03:22:20;;;;;;;16.67;12.77;;;10.60;99.90;;;;;;5055317;28;20470;-65
2023/03/19 03:24:47;;;;;;;16.57;13.30;;;10.60;99.90;;;;;;5055091;28;20807;-66
2023/03/19 03:27:15;;;;;;;16.50;12.90;;;10.60;99.90;;;;;;5054615;28;20550;-63
2023/03/19 03:29:44;;;;;;;19.57;12.70;;;10.60;99.90;;;;;;5055278;28;20460;-63
2023/03/19 03:32:11;;;;;;;15.80;12.80;;;10.60;99.90;;;;;;5054891;28;20491;-62
2023/03/19 03:34:38;;;;;;;17.93;13.50;;;10.60;99.90;;;;;;5055391;28;20493;-61
2023/03/19 03:37:08;;;;;;;16.97;13.10;;;10.40;99.90;;;;;;5055765;28;20466;-61
2023/03/19 03:39:35;;;;;;;17.93;13.37;;;10.30;99.90;;;;;;5054625;28;20459;-62
2023/03/19 03:42:01;;;;;;;20.60;13.23;;;10.20;99.90;;;;;;5054390;28;20459;-60
2023/03/19 03:44:28;;;;;;;16.77;12.70;;;10.10;99.90;;;;;;5054333;28;20565;-60
2023/03/19 03:46:55;;;;;;;16.17;13.03;;;10.10;99.90;;;;;;5054084;28;20465;-62
2023/03/19 03:49:22;;;;;;;18.90;13.30;;;10.10;99.90;;;;;;5054444;28;20653;-63
2023/03/19 03:51:49;;;;;;;16.43;12.90;;;10.10;99.90;;;;;;5053976;28;20546;-62
2023/03/19 03:54:17;;;;;;;19.03;14.00;;;10.10;99.90;;;;;;5053949;28;20459;-61
2023/03/19 03:56:44;;;;;;;19.00;13.20;;;10.00;99.90;;;;;;5053972;28;20550;-62
2023/03/19 03:59:11;;;;;;;21.80;13.73;;;9.90;99.90;;;;;;5057858;28;20542;-60
2023/03/19 04:01:38;;;;;;;14.27;12.30;;;9.90;99.90;;;;;;5058506;28;20871;-61
2023/03/19 04:04:05;;;;;;;16.90;12.57;;;9.90;99.90;;;;;;5058051;28;20465;-62
2023/03/19 04:06:32;;;;;;;18.60;14.13;;;9.90;99.90;;;;;;5059830;28;20497;-62
2023/03/19 04:08:59;;;;;;;18.77;13.50;;;9.90;99.90;;;;;;5058992;28;20542;-62
2023/03/19 04:11:28;;;;;;;22.53;13.50;;;9.90;99.90;;;;;;5059065;28;20542;-62
2023/03/19 04:13:56;;;;;;;17.57;12.80;;;9.90;99.90;;;;;;5059942;28;20888;-62
2023/03/19 04:16:23;;;;;;;16.27;13.20;;;10.00;99.90;;;;;;5058006;28;20493;-63
2023/03/19 04:18:50;;;;;;;17.20;13.13;;;10.00;99.90;;;;;;5057842;28;20546;-62
2023/03/19 04:21:17;;;;;;;19.47;12.90;;;10.00;99.90;;;;;;5058129;28;20537;-62
2023/03/19 04:23:44;;;;;;;22.07;14.00;;;10.00;99.90;;;;;;5058671;28;20491;-62
2023/03/19 04:26:12;;;;;;;19.33;13.93;;;9.90;99.90;;;;;;5058298;28;20574;-63
2023/03/19 04:28:40;;;;;;;21.83;13.50;;;9.90;99.90;;;;;;5057600;28;20459;-63
2023/03/19 04:31:09;;;;;;;20.50;14.27;;;9.90;99.90;;;;;;5057507;28;20915;-63
2023/03/19 04:33:36;;;;;;;19.67;14.23;;;9.90;99.90;;;;;;5057586;28;20461;-62
2023/03/19 04:36:03;;;;;;;17.80;14.60;;;9.80;99.90;;;;;;5057413;28;20461;-63
2023/03/19 04:38:30;;;;;;;18.67;14.57;;;9.80;99.90;;;;;;5057713;28;20541;-62
2023/03/19 04:40:58;;;;;;;18.67;14.13;;;9.80;99.90;;;;;;5057631;28;20466;-63
2023/03/19 04:43:25;;;;;;;15.60;12.83;;;9.70;99.90;;;;;;5057501;28;20549;-63
2023/03/19 04:45:53;;;;;;;19.40;14.23;;;9.80;99.90;;;;;;5057699;28;20478;-62
2023/03/19 04:48:20;;;;;;;16.97;14.33;;;9.80;99.90;;;;;;5057465;28;20465;-64
2023/03/19 04:50:50;;;;;;;20.00;14.57;;;9.80;99.90;;;;;;5057579;28;20458;-63
2023/03/19 04:53:19;;;;;;;24.83;14.53;;;9.80;99.90;;;;;;5057299;28;20505;-63
2023/03/19 04:55:46;;;;;;;19.50;14.13;;;9.90;99.90;;;;;;5057082;28;20451;-63
2023/03/19 04:58:13;;;;;;;17.13;13.70;;;10.00;99.90;;;;;;5056975;28;20468;-61
2023/03/19 05:00:40;;;;;;;18.93;14.30;;;10.10;99.90;;;;;;5057397;28;20554;-62
2023/03/19 05:03:08;;;;;;;18.23;14.60;;;10.00;99.90;;;;;;5057352;28;20483;-63
2023/03/19 05:05:35;;;;;;;16.70;13.50;;;9.90;99.90;;;;;;5057152;28;20804;-64
2023/03/19 05:08:02;;;;;;;21.33;14.33;;;9.80;99.90;;;;;;5056769;28;20546;-63
2023/03/19 05:10:29;;;;;;;18.00;14.70;;;9.80;99.90;;;;;;5055779;28;20506;-63
2023/03/19 05:12:56;;;;;;;18.77;15.70;;;9.50;99.90;;;;;;5057163;28;20491;-62
2023/03/19 05:15:23;;;;;;;21.23;16.03;;;9.40;99.90;;;;;;5056661;28;20518;-65
2023/03/19 05:17:50;;;;;;;21.97;15.83;;;9.30;99.90;;;;;;5056938;28;20542;-65
2023/03/19 05:20:18;;;;;;;25.50;16.87;;;9.40;99.90;;;;;;5056932;28;20553;-66
2023/03/19 05:22:45;;;;;;;23.13;17.37;;;9.30;99.90;;;;;;5057106;28;20546;-64
2023/03/19 05:25:13;;;;;;;25.80;18.40;;;9.20;99.90;;;;;;5056701;28;20482;-65
2023/03/19 05:27:40;;;;;;;24.13;18.40;;;9.20;99.90;;;;;;5057026;28;20452;-65
2023/03/19 05:30:09;;;;;;;27.73;18.70;;;9.10;99.90;;;;;;5056243;28;20554;-60
2023/03/19 05:32:37;;;;;;;23.20;18.60;;;9.00;99.90;;;;;;5056667;28;20513;-61
2023/03/19 05:35:07;;;;;;;24.40;19.00;;;8.90;99.90;;;;;;5056771;28;20550;-67
2023/03/19 05:37:35;;;;;;;27.93;20.90;;;8.90;99.90;;;;;;5056641;28;20459;-67
2023/03/19 05:40:03;;;;;;;25.70;20.70;;;8.90;99.90;;;;;;5056330;28;20546;-67
2023/03/19 05:42:30;;;;;;;28.67;21.40;;;9.00;99.90;;;;;;5056203;28;20467;-62
2023/03/19 05:44:56;;;;;;;28.13;20.97;;;8.90;99.90;;;;;;5056512;28;20494;-59
2023/03/19 05:47:24;;;;;;;30.47;20.70;;;8.70;99.90;;;;;;5056248;28;20459;-62
2023/03/19 05:49:50;;;;;;;30.07;21.10;;;8.60;99.90;;;;;;5056530;28;20486;-62
2023/03/19 05:52:17;;;;;;;30.40;21.70;;;8.50;99.90;;;;;;5056338;28;20459;-60
2023/03/19 05:54:48;;;;;;;28.17;20.33;;;8.50;99.90;;;;;;5055998;28;20465;-60
2023/03/19 05:57:15;;;;;;;23.70;20.03;;;8.50;99.90;;;;;;5056257;28;20448;-61
2023/03/19 05:59:42;;;;;;;20.87;17.07;;;8.50;99.90;;;;;;5055992;28;20899;-62
2023/03/19 06:02:10;;;;;;;27.73;18.17;;;8.60;99.90;;;;;;5056512;28;20455;-61
2023/03/19 06:04:36;;;;;;;22.00;16.80;;;8.70;99.90;;;;;;5056475;28;20466;-60
2023/03/19 06:07:04;;;;;;;21.57;16.57;;;8.80;99.90;;;;;;5056629;28;20485;-65
2023/03/19 06:09:31;;;;;;;21.30;16.93;;;8.80;99.90;;;;;;5056193;28;20463;-66
2023/03/19 06:11:59;;;;;;;24.73;16.63;;;8.90;99.90;;;;;;5056158;28;20455;-65
2023/03/19 06:14:26;;;;;;;19.93;16.60;;;9.00;99.90;;;;;;5056154;28;20483;-66
2023/03/19 06:16:53;;;;;;;19.47;15.93;;;9.10;99.90;;;;;;5056105;28;20446;-66
2023/03/19 06:19:20;;;;;;;20.77;15.60;;;9.10;99.90;;;;;;5056144;28;20458;-66
2023/03/19 06:21:47;;;;;;;22.30;16.70;;;9.20;99.90;;;;;;5055554;28;20775;-65
2023/03/19 06:24:14;;;;;;;19.17;15.50;;;9.20;99.90;;;;;;5055733;28;20538;-65
2023/03/19 06:26:41;;;;;;;22.03;16.10;;;9.30;99.90;;;;;;5055962;28;20489;-65
2023/03/19 06:29:09;;;;;;;17.87;15.53;;;9.40;99.90;;;;;;5056041;28;20862;-65
2023/03/19 06:31:38;;;;;;;18.90;15.17;;;9.50;99.90;;;;;;5055771;28;20983;-65
2023/03/19 06:34:05;;;;;;;19.87;15.30;;;9.50;99.90;;;;;;5055678;28;20875;-66
2023/03/19 06:36:31;;;;;;;19.83;15.60;;;9.60;99.90;;;;;;5055320;28;20451;-66
2023/03/19 06:38:58;;;;;;;20.33;16.87;;;9.60;99.90;;;;;;5055495;28;20455;-65
2023/03/19 06:41:25;;;;;;;21.00;16.27;;;9.70;99.90;;;;;;5055667;28;20858;-65
2023/03/19 06:43:52;;;;;;;19.60;16.37;;;9.70;99.90;;;;;;5055388;28;20554;-65
2023/03/19 06:46:21;;;;;;;26.40;17.10;;;9.80;99.90;;;;;;5055719;28;20501;-66
2023/03/19 06:48:48;;;;;;;22.13;16.90;;;9.90;99.90;;;;;;5055704;28;20483;-66
2023/03/19 06:51:14;;;;;;;16.83;15.00;;;10.00;99.90;;;;;;5055322;28;20535;-66
2023/03/19 06:53:41;;;;;;;20.70;16.40;;;10.10;99.90;;;;;;5054929;28;20474;-65
2023/03/19 06:56:09;;;;;;;19.73;14.73;;;10.20;99.90;;;;;;5055392;28;20959;-66
2023/03/19 06:58:36;;;;;;;21.40;14.47;;;10.20;99.90;;;;;;5054899;28;20478;-65
2023/03/19 07:01:03;;;;;;;15.53;13.40;;;10.20;99.90;;;;;;5055132;28;20529;-65
2023/03/19 07:03:31;;;;;;;16.80;14.23;;;10.20;99.90;;;;;;5055122;28;20487;-66
2023/03/19 07:05:58;;;;;;;15.30;13.03;;;10.20;99.90;;;;;;5055123;28;20800;-66
2023/03/19 07:08:28;;;;;;;17.07;13.23;;;10.20;99.90;;;;;;5055015;28;20455;-66
2023/03/19 07:10:55;;;;;;;17.67;14.23;;;10.30;99.90;;;;;;5054935;28;20444;-66
2023/03/19 07:13:22;;;;;;;17.60;13.30;;;10.30;99.90;;;;;;5054605;28;20554;-66
2023/03/19 07:15:49;;;;;;;15.80;13.53;;;10.20;99.90;;;;;;5054478;28;20487;-66
2023/03/19 07:18:15;;;;;;;16.83;13.43;;;10.30;99.90;;;;;;5054848;28;20481;-65
2023/03/19 07:20:44;;;;;;;15.10;13.10;;;10.10;99.90;;;;;;5054552;28;20455;-66
2023/03/19 07:23:11;;;;;;;15.80;14.10;;;10.10;99.90;;;;;;5054874;28;20568;-66
2023/03/19 07:25:37;;;;;;;18.33;14.50;;;10.10;99.90;;;;;;5054458;28;20475;-66
2023/03/19 07:28:05;;;;;;;23.83;15.97;;;10.10;99.90;;;;;;5054830;28;20459;-65
2023/03/19 07:30:31;;;;;;;20.40;16.70;;;10.10;99.90;;;;;;5054893;28;20483;-66
2023/03/19 07:32:58;;;;;;;18.50;16.53;;;10.00;99.90;;;;;;5053876;28;20459;-66
2023/03/19 07:35:25;;;;;;;22.60;17.70;;;9.90;99.90;;;;;;5054411;28;20498;-66
2023/03/19 07:37:53;;;;;;;24.53;18.70;;;9.90;99.90;;;;;;5054362;28;21023;-66
2023/03/19 07:40:20;;;;;;;26.10;18.17;;;9.90;99.90;;;;;;5054392;28;20538;-65
2023/03/19 07:42:47;;;;;;;21.30;17.93;;;9.90;99.90;;;;;;5054626;28;20470;-66
2023/03/19 07:45:14;;;;;;;22.60;18.20;;;9.90;99.90;;;;;;5054518;28;20477;-66
2023/03/19 07:47:41;;;;;;;23.30;19.40;;;9.90;99.90;;;;;;5054493;28;20796;-66
2023/03/19 07:50:09;;;;;;;27.40;21.27;;;9.90;99.90;;;;;;5054548;28;20466;-66
2023/03/19 07:52:36;;;;;;;27.93;21.60;;;9.90;99.90;;;;;;5057406;28;20471;-67
2023/03/19 07:55:05;;;;;;;25.07;20.03;;;9.90;99.90;;;;;;5055381;28;20455;-65
2023/03/19 07:57:32;;;;;;;27.10;20.10;;;9.90;99.90;;;;;;5054554;28;20462;-65
2023/03/19 07:59:59;;;;;;;26.70;22.80;;;9.90;99.90;;;;;;5054051;28;20469;-65
2023/03/19 08:02:26;;;;;;;31.83;23.20;;;10.00;99.90;;;;;;5054595;28;20522;-66
2023/03/19 08:04:53;;;;;;;27.40;22.77;;;10.10;99.90;;;;;;5054220;28;20455;-66
2023/03/19 08:07:20;;;;;;;27.77;23.30;;;10.00;99.90;;;;;;5054950;28;20812;-66
2023/03/19 08:09:47;;;;;;;30.63;22.97;;;10.00;99.90;;;;;;5054571;28;20528;-63
2023/03/19 08:12:15;;;;;;;27.23;23.00;;;9.80;99.90;;;;;;5054339;28;20538;-64
2023/03/19 08:14:42;;;;;;;29.17;23.37;;;9.70;99.90;;;;;;5054063;28;20483;-63
2023/03/19 08:17:09;;;;;;;27.93;22.07;;;9.60;99.90;;;;;;5054318;28;20530;-63
2023/03/19 08:19:36;;;;;;;32.53;24.30;;;9.60;99.90;;;;;;5054136;28;20553;-63
2023/03/19 08:22:04;;;;;;;29.00;22.77;;;9.60;99.90;;;;;;5054261;28;20455;-63
2023/03/19 08:24:31;;;;;;;29.50;23.37;;;9.60;99.90;;;;;;5054218;28;20480;-63
2023/03/19 08:26:58;;;;;;;28.13;24.07;;;9.60;99.90;;;;;;5054066;28;20479;-63
2023/03/19 08:29:27;;;;;;;27.30;24.17;;;9.60;99.90;;;;;;5054088;28;20553;-63
2023/03/19 08:31:54;;;;;;;31.20;25.20;;;9.60;99.90;;;;;;5054066;28;20455;-63
2023/03/19 08:34:21;;;;;;;29.40;24.00;;;9.60;99.90;;;;;;5053890;28;20931;-62
2023/03/19 08:36:48;;;;;;;32.40;25.07;;;9.60;99.90;;;;;;5053831;28;20497;-63
2023/03/19 08:39:15;;;;;;;30.03;24.00;;;9.60;99.90;;;;;;5054007;28;20455;-63
2023/03/19 08:41:42;;;;;;;27.30;20.93;;;9.60;99.90;;;;;;5054514;28;20465;-63
2023/03/19 08:44:09;;;;;;;26.67;21.37;;;9.60;99.90;;;;;;5055824;28;20455;-63
2023/03/19 08:46:37;;;;;;;28.07;22.33;;;9.60;99.90;;;;;;5057635;28;20489;-63
2023/03/19 08:49:04;;;;;;;25.67;21.63;;;9.50;99.90;;;;;;5057774;28;20757;-63
2023/03/19 08:51:31;;;;;;;26.70;22.60;;;9.50;99.90;;;;;;5057689;28;20469;-63
2023/03/19 08:53:58;;;;;;;32.70;24.30;;;9.40;99.90;;;;;;5057302;28;20487;-64
2023/03/19 08:56:25;;;;;;;28.60;23.27;;;9.40;99.90;;;;;;5057581;28;20520;-63
2023/03/19 08:58:52;;;;;;;29.20;24.60;;;9.40;99.90;;;;;;5057242;28;20454;-64
2023/03/19 09:01:18;;;;;;;30.87;24.70;;;9.40;99.90;;;;;;5057457;28;20545;-64
2023/03/19 09:03:47;;;;;;;32.20;23.67;;;9.50;99.90;;;;;;5057347;28;20451;-63
2023/03/19 09:06:14;;;;;;;31.33;23.80;;;9.50;99.90;;;;;;5057467;28;20475;-63
2023/03/19 09:08:41;;;;;;;35.63;25.10;;;9.50;99.90;;;;;;5057518;28;20459;-64
2023/03/19 09:11:09;;;;;;;34.20;23.27;;;9.50;99.90;;;;;;5057759;28;20455;-64
2023/03/19 09:13:36;;;;;;;28.23;22.60;;;9.60;99.90;;;;;;5057104;28;20455;-64
2023/03/19 09:16:03;;;;;;;30.20;23.33;;;9.60;99.90;;;;;;5057014;28;20483;-64
2023/03/19 09:18:31;;;;;;;30.60;23.63;;;9.60;99.90;;;;;;5056855;28;20487;-63
2023/03/19 09:21:00;;;;;;;27.57;23.90;;;9.60;99.90;;;;;;5057305;28;20459;-63
2023/03/19 09:23:27;;;;;;;29.80;23.63;;;9.60;99.90;;;;;;5057196;28;20852;-64
2023/03/19 09:25:54;;;;;;;28.90;22.33;;;9.80;99.90;;;;;;5057080;28;20459;-64
2023/03/19 09:28:21;;;;;;;31.97;24.73;;;9.80;99.90;;;;;;5057336;28;20481;-64
2023/03/19 09:30:48;;;;;;;28.33;22.73;;;9.80;99.90;;;;;;5057506;28;20465;-64
2023/03/19 09:33:16;;;;;;;30.60;23.27;;;9.90;99.90;;;;;;5056843;28;20534;-64
2023/03/19 09:35:43;;;;;;;29.17;23.30;;;10.00;99.90;;;;;;5056967;28;20487;-64
2023/03/19 09:38:11;;;;;;;30.37;23.37;;;10.00;99.90;;;;;;5056664;28;20470;-64
2023/03/19 09:40:42;;;;;;;33.87;22.93;;;9.90;99.90;;;;;;5056762;28;20931;-63
2023/03/19 09:43:30;;;;;;;30.87;23.00;;;9.90;99.90;;;;;;5056697;28;20454;-64
2023/03/19 09:45:59;;;;;;;29.33;22.60;;;10.00;99.90;;;;;;5056742;28;20455;-63
2023/03/19 09:48:34;;;;;;;27.37;21.93;;;10.10;99.90;;;;;;5056805;28;20779;-63
2023/03/19 09:51:08;;;;;;;27.93;23.20;;;10.10;99.90;;;;;;5056662;28;20443;-63
2023/03/19 09:53:46;;;;;;;29.57;22.67;;;10.30;99.90;;;;;;5056385;28;20443;-63
2023/03/19 09:56:18;;;;;;;28.03;22.83;;;10.50;99.90;;;;;;5055540;28;20440;-63
2023/03/19 09:58:46;;;;;;;31.67;24.60;;;10.70;99.90;;;;;;5056824;28;20447;-63
2023/03/19 10:01:24;;;;;;;28.10;22.37;;;10.70;99.90;;;;;;5057798;28;20538;-63
2023/03/19 10:04:17;;;;;;;25.20;22.23;;;10.90;99.90;;;;;;5057310;28;20911;-64
2023/03/19 10:06:44;;;;;;;26.47;20.90;;;11.10;99.90;;;;;;5056938;28;21011;-64
2023/03/19 10:09:39;;;;;;;25.87;22.30;;;11.30;99.90;;;;;;5057047;28;20531;-64
2023/03/19 10:12:17;;;;;;;28.87;21.73;;;11.60;99.90;;;;;;5057075;28;20848;-64
2023/03/19 10:14:57;;;;;;;24.77;21.47;;;11.80;99.90;;;;;;5056903;28;20811;-63
2023/03/19 10:17:31;;;;;;;23.73;19.90;;;11.80;99.90;;;;;;5056795;28;20774;-62
2023/03/19 10:20:05;;;;;;;22.73;18.33;;;11.90;99.90;;;;;;5056645;28;20447;-64
2023/03/19 10:22:37;;;;;;;22.37;18.63;;;12.10;99.90;;;;;;5056624;28;20467;-64
2023/03/19 10:25:11;;;;;;;23.50;18.10;;;12.10;99.90;;;;;;5057576;28;20469;-64
2023/03/19 10:27:38;;;;;;;22.73;18.37;;;12.10;99.90;;;;;;5057970;28;20472;-64
2023/03/19 10:30:14;;;;;;;20.20;17.10;;;12.10;99.90;;;;;;5058052;28;20466;-63
2023/03/19 10:32:43;;;;;;;19.10;15.40;;;12.20;99.90;;;;;;5055908;28;20457;-64
2023/03/19 10:35:19;;;;;;;18.80;16.57;;;12.10;99.90;;;;;;5055732;28;20455;-63
2023/03/19 10:37:48;;;;;;;18.20;16.40;;;12.20;99.90;;;;;;5055980;28;20759;-63
2023/03/19 10:40:24;;;;;;;18.30;16.20;;;12.10;99.90;;;;;;5055581;28;20795;-64
2023/03/19 10:43:04;;;;;;;18.63;16.10;;;12.20;99.90;;;;;;5056007;28;20534;-63
2023/03/19 10:45:33;;;;;;;19.20;16.40;;;12.40;99.90;;;;;;5056258;28;20533;-64
2023/03/19 10:48:02;;;;;;;20.37;16.43;;;12.60;99.90;;;;;;5055312;28;21053;-64
2023/03/19 10:50:32;;;;;;;18.23;14.77;;;12.70;99.90;;;;;;5055451;28;20551;-64
2023/03/19 10:53:05;;;;;;;19.40;15.40;;;12.90;99.90;;;;;;5055792;28;20521;-64
2023/03/19 10:55:34;;;;;;;16.90;14.50;;;13.00;99.90;;;;;;5055478;28;20432;-64
2023/03/19 10:58:07;;;;;;;16.30;14.60;;;13.20;99.90;;;;;;5055519;28;20513;-62
2023/03/19 11:00:35;;;;;;;15.23;13.73;;;13.30;99.90;;;;;;5054932;28;20465;-63
2023/03/19 11:03:04;;;;;;;18.83;15.13;;;13.50;99.90;;;;;;5055277;28;20463;-64
2023/03/19 11:05:32;;;;;;;14.67;13.07;;;13.60;99.90;;;;;;5054856;28;20461;-64
2023/03/19 11:08:02;;;;;;;15.33;12.97;;;13.60;99.90;;;;;;5054910;28;20483;-63
2023/03/19 11:10:30;;;;;;;16.20;14.37;;;13.50;99.90;;;;;;5055021;28;20832;-63
2023/03/19 11:13:02;;;;;;;14.27;12.83;;;13.50;99.90;;;;;;5054763;28;20550;-63
2023/03/19 11:15:34;;;;;;;19.67;17.43;;;13.50;99.90;;;;;;5055166;28;20815;-64
2023/03/19 11:18:07;;;;;;;14.37;12.87;;;13.30;99.90;;;;;;5055640;28;20450;-64
2023/03/19 11:20:36;;;;;;;17.90;14.30;;;13.30;99.90;;;;;;5055402;28;20523;-63
2023/03/19 11:23:10;;;;;;;15.50;13.40;;;13.30;99.90;;;;;;5054964;28;20490;-64
2023/03/19 11:25:40;;;;;;;15.73;13.77;;;13.20;99.90;;;;;;5054755;28;20525;-62
2023/03/19 11:28:10;;;;;;;14.27;12.17;;;13.30;99.90;;;;;;5055268;28;20486;-64
2023/03/19 11:30:45;;;;;;;16.23;12.93;;;13.20;99.90;;;;;;5056202;28;20459;-64
2023/03/19 11:33:35;;;;;;;13.73;12.13;;;13.10;99.90;;;;;;5056886;28;20554;-64
2023/03/19 11:36:09;;;;;;;12.83;10.93;;;13.20;99.90;;;;;;5056079;28;20518;-64
2023/03/19 11:38:49;;;;;;;12.10;10.20;;;13.30;99.90;;;;;;5055718;28;20439;-64
2023/03/19 11:41:29;;;;;;;12.70;11.40;;;13.20;99.90;;;;;;5055374;28;20443;-63
2023/03/19 11:44:01;;;;;;;12.77;10.90;;;13.30;99.90;;;;;;5055966;28;20435;-63
2023/03/19 11:46:39;;;;;;;13.00;11.27;;;13.50;99.90;;;;;;5054697;28;20487;-63
2023/03/19 11:49:31;;;;;;;11.40;9.93;;;13.70;99.90;;;;;;5055005;28;20478;-64
2023/03/19 11:52:02;;;;;;;10.77;9.73;;;13.80;99.90;;;;;;5055068;28;20454;-63
2023/03/19 11:54:40;;;;;;;12.67;10.07;;;13.80;99.90;;;;;;5054383;28;20538;-64
2023/03/19 11:57:14;;;;;;;11.30;9.47;;;13.70;99.90;;;;;;5054544;28;20710;-64
2023/03/19 12:00:01;;;;;;;10.50;8.90;;;13.60;99.90;;;;;;5054455;28;20458;-63
2023/03/19 12:02:50;;;;;;;11.23;9.37;;;13.60;99.90;;;;;;5055647;28;20550;-64
2023/03/19 12:05:28;;;;;;;10.03;9.03;;;13.50;99.90;;;;;;5054580;28;20454;-63
2023/03/19 12:08:06;;;;;;;10.70;9.53;;;13.70;99.90;;;;;;5054421;28;20766;-63
2023/03/19 12:10:50;;;;;;;11.37;10.07;;;13.80;99.90;;;;;;5053949;28;20443;-64
2023/03/19 12:13:28;;;;;;;11.23;9.90;;;13.90;99.90;;;;;;5053989;28;20439;-64
2023/03/19 12:16:06;;;;;;;13.37;9.20;;;13.90;99.90;;;;;;5053685;28;20491;-61
2023/03/19 12:18:54;;;;;;;14.30;11.77;;;13.80;99.90;;;;;;5055833;28;20740;-65
2023/03/19 12:21:30;;;;;;;14.03;10.17;;;13.70;99.90;;;;;;5057924;28;20522;-64
2023/03/19 12:24:04;;;;;;;8.53;7.63;;;13.70;99.90;;;;;;5057999;28;20534;-64
2023/03/19 12:26:45;;;;;;;9.20;8.10;;;13.70;99.90;;;;;;5058307;28;20443;-63
2023/03/19 12:29:21;;;;;;;12.17;9.63;;;13.80;99.90;;;;;;5058354;28;20447;-64
2023/03/19 12:32:06;;;;;;;11.93;9.73;;;13.90;99.90;;;;;;5058872;28;20707;-63
2023/03/19 12:34:37;;;;;;;11.80;9.57;;;13.90;99.90;;;;;;5059051;28;20447;-63
2023/03/19 12:37:16;;;;;;;9.37;8.37;;;13.90;99.90;;;;;;5059069;28;20436;-63
2023/03/19 12:39:48;;;;;;;10.03;9.03;;;14.10;99.90;;;;;;5059187;28;20961;-63
2023/03/19 12:42:21;;;;;;;10.00;9.00;;;14.10;99.90;;;;;;5059462;28;20813;-63